Time;durP1;ratioP1;P1;durP2;ratioP2;P2;SDS_P1;SDS_P2;PMS_P1;PMS_P2;Temp;Humidity;BMP_temperature;BMP_pressure;BME280_temperature;BME280_humidity;BME280_pressure;Samples;Min_cycle;Max_cycle;Signal;HPM_P1;HPM_P2
2022/10/28 00:01:25;;;;;;;13.73;8.47;;;;;;;13.93;68.65;100792.09;5074553;28;20283;-64
2022/10/28 00:03:53;;;;;;;10.47;7.77;;;;;;;13.88;68.77;100792.66;5074453;28;20253;-64
2022/10/28 00:06:22;;;;;;;13.97;8.03;;;;;;;13.97;68.28;100796.06;5074320;28;20196;-64
2022/10/28 00:08:49;;;;;;;10.47;6.83;;;;;;;13.95;68.75;100793.56;5074612;28;20224;-64
2022/10/28 00:11:18;;;;;;;8.60;7.70;;;;;;;13.92;68.64;100793.94;5074348;28;20228;-64
2022/10/28 00:13:46;;;;;;;10.70;7.37;;;;;;;13.93;68.68;100795.59;5074557;28;20242;-63
2022/10/28 00:16:14;;;;;;;9.03;7.47;;;;;;;13.82;68.80;100777.38;5074206;28;20195;-64
2022/10/28 00:18:42;;;;;;;12.27;8.23;;;;;;;13.94;68.44;100791.09;5074083;28;20196;-64
2022/10/28 00:21:11;;;;;;;10.57;7.17;;;;;;;13.97;68.62;100802.22;5074211;28;20254;-64
2022/10/28 00:23:37;;;;;;;11.40;7.40;;;;;;;13.98;68.42;100795.03;5074125;28;20261;-63
2022/10/28 00:26:06;;;;;;;8.57;6.73;;;;;;;13.90;68.31;100798.66;5073965;28;20245;-63
2022/10/28 00:28:34;;;;;;;11.47;6.73;;;;;;;13.92;68.33;100798.44;5070624;28;20266;-64
2022/10/28 00:31:06;;;;;;;8.57;7.23;;;;;;;13.92;68.42;100798.44;5053817;28;20652;-64
2022/10/28 00:33:33;;;;;;;11.80;8.27;;;;;;;13.92;68.78;100787.75;5054088;28;20588;-64
2022/10/28 00:36:14;;;;;;;9.43;7.40;;;;;;;13.89;68.52;100788.97;5066417;28;20649;-64
2022/10/28 00:38:42;;;;;;;13.90;6.50;;;;;;;13.81;68.96;100793.59;5073927;28;20188;-63
2022/10/28 00:41:09;;;;;;;10.40;7.23;;;;;;;13.81;69.39;100796.25;5073827;28;20663;-63
2022/10/28 00:43:40;;;;;;;13.73;7.80;;;;;;;13.69;69.77;100798.53;5073802;28;20245;-63
2022/10/28 00:46:24;;;;;;;11.10;7.70;;;;;;;13.62;69.95;100797.66;5073658;28;20185;-64
2022/10/28 00:48:54;;;;;;;10.27;6.57;;;;;;;13.59;70.12;100792.66;5073411;28;20203;-65
2022/10/28 00:51:24;;;;;;;18.33;7.10;;;;;;;13.50;70.69;100793.78;5073418;28;20241;-64
2022/10/28 00:53:53;;;;;;;11.97;7.73;;;;;;;13.44;70.78;100786.47;5073748;28;20196;-63
2022/10/28 00:56:22;;;;;;;10.10;7.23;;;;;;;13.46;71.54;100805.81;5073403;28;20664;-64
2022/10/28 00:58:51;;;;;;;10.17;6.60;;;;;;;13.43;70.73;100795.50;5073671;28;20328;-64
2022/10/28 01:01:18;;;;;;;13.47;6.73;;;;;;;13.30;71.43;100795.31;5072567;28;20250;-64
2022/10/28 01:03:45;;;;;;;10.17;7.50;;;;;;;13.27;71.34;100802.84;5072374;28;20757;-64
2022/10/28 01:06:11;;;;;;;9.80;7.20;;;;;;;13.23;72.63;100799.69;5073619;28;20195;-63
2022/10/28 01:08:38;;;;;;;18.53;7.33;;;;;;;13.24;72.57;100804.03;5073069;28;20220;-64
2022/10/28 01:11:31;;;;;;;11.20;8.50;;;;;;;13.19;72.86;100801.06;5073136;28;20232;-64
2022/10/28 01:14:20;;;;;;;10.67;8.07;;;;;;;13.10;73.56;100802.16;5073314;28;20301;-66
2022/10/28 01:17:04;;;;;;;12.60;8.30;;;;;;;13.01;73.86;100797.91;5073141;28;20188;-64
2022/10/28 01:20:08;;;;;;;11.50;9.13;;;;;;;12.91;74.39;100791.13;5072750;28;20258;-64
2022/10/28 01:22:41;;;;;;;12.83;8.17;;;;;;;12.95;74.33;100795.91;5072998;28;20187;-64
2022/10/28 01:25:29;;;;;;;10.47;8.77;;;;;;;12.90;74.12;100794.81;5073197;28;20188;-64
2022/10/28 01:28:25;;;;;;;15.17;9.60;;;;;;;12.80;74.66;100795.06;5073082;28;20184;-64
2022/10/28 01:31:12;;;;;;;16.47;10.60;;;;;;;12.78;74.88;100799.72;5052892;28;20246;-64
2022/10/28 01:33:46;;;;;;;17.90;10.30;;;;;;;12.78;74.88;100797.06;5052752;28;20668;-64
2022/10/28 01:36:18;;;;;;;14.53;9.90;;;;;;;12.77;74.68;100805.22;5066675;28;20656;-64
2022/10/28 01:38:57;;;;;;;18.90;10.63;;;;;;;12.68;74.68;100796.47;5072607;28;20196;-64
2022/10/28 01:41:31;;;;;;;18.07;11.90;;;;;;;12.68;74.70;100801.81;5073020;28;20219;-64
2022/10/28 01:44:05;;;;;;;16.83;11.70;;;;;;;12.61;74.50;100800.00;5072702;28;20257;-64
2022/10/28 01:46:39;;;;;;;16.33;11.77;;;;;;;12.56;74.73;100808.56;5072178;28;20610;-65
2022/10/28 01:49:11;;;;;;;20.60;11.47;;;;;;;12.50;74.95;100798.59;5072752;28;20260;-64
2022/10/28 01:51:44;;;;;;;17.27;11.33;;;;;;;12.50;75.07;100803.09;5072277;28;20188;-64
2022/10/28 01:54:15;;;;;;;19.77;10.77;;;;;;;12.46;75.50;100812.47;5072576;28;20187;-64
2022/10/28 01:56:43;;;;;;;12.90;9.47;;;;;;;12.41;75.39;100804.97;5072624;28;20241;-65
2022/10/28 01:59:16;;;;;;;17.20;9.83;;;;;;;12.38;75.35;100810.69;5072136;28;20233;-64
2022/10/28 02:01:44;;;;;;;18.30;10.90;;;;;;;12.40;75.29;100819.31;5072164;28;20246;-64
2022/10/28 02:04:11;;;;;;;21.23;11.30;;;;;;;12.33;75.56;100812.22;5072248;28;20261;-64
2022/10/28 02:06:40;;;;;;;20.00;11.40;;;;;;;12.34;75.70;100825.34;5071994;28;20200;-64
2022/10/28 02:09:22;;;;;;;22.80;11.90;;;;;;;12.35;75.46;100821.69;5072017;28;20223;-64
2022/10/28 02:12:09;;;;;;;26.50;12.57;;;;;;;12.33;75.54;100818.34;5072252;28;20231;-64
2022/10/28 02:14:53;;;;;;;19.30;11.30;;;;;;;12.32;75.41;100827.34;5071297;28;20191;-64
2022/10/28 02:17:31;;;;;;;26.87;14.20;;;;;;;12.25;75.37;100823.72;5071799;28;20244;-65
2022/10/28 02:20:07;;;;;;;24.70;13.60;;;;;;;12.36;75.36;100823.34;5071612;28;20721;-64
2022/10/28 02:22:45;;;;;;;35.90;14.47;;;;;;;12.42;74.98;100819.94;5071966;28;20241;-64
2022/10/28 02:25:16;;;;;;;25.50;13.53;;;;;;;12.46;74.60;100828.44;5071865;28;20642;-64
2022/10/28 02:27:50;;;;;;;22.90;14.53;;;;;;;12.36;75.02;100820.66;5071830;28;20190;-65
2022/10/28 02:30:22;;;;;;;30.43;14.47;;;;;;;12.35;75.43;100827.00;5054047;28;20248;-65
2022/10/28 02:32:55;;;;;;;25.20;15.37;;;;;;;12.36;75.29;100822.50;5051461;28;20183;-64
2022/10/28 02:35:30;;;;;;;35.30;16.30;;;;;;;12.40;74.79;100827.31;5058388;28;20224;-65
2022/10/28 02:38:01;;;;;;;29.83;15.93;;;;;;;12.40;74.90;100827.31;5071628;28;20186;-64
2022/10/28 02:40:30;;;;;;;30.77;16.30;;;;;;;12.40;75.22;100829.97;5071811;28;20195;-65
2022/10/28 02:43:01;;;;;;;23.47;14.87;;;;;;;12.41;75.10;100828.97;5071748;28;20198;-63
2022/10/28 02:45:32;;;;;;;23.77;15.13;;;;;;;12.41;74.43;100831.63;5071717;28;20183;-64
2022/10/28 02:48:05;;;;;;;25.87;13.93;;;;;;;12.27;75.13;100831.53;5071504;28;20187;-64
2022/10/28 02:50:35;;;;;;;36.80;14.70;;;;;;;12.12;75.52;100831.44;5071683;28;20218;-64
2022/10/28 02:53:06;;;;;;;18.07;13.57;;;;;;;12.00;75.92;100832.00;5071786;28;20260;-64
2022/10/28 02:55:40;;;;;;;22.00;14.80;;;;;;;11.98;75.87;100842.81;5071595;28;20205;-64
2022/10/28 02:58:07;;;;;;;20.47;12.70;;;;;;;11.95;75.41;100840.50;5071380;28;20214;-64
2022/10/28 03:00:34;;;;;;;22.37;12.20;;;;;;;11.87;76.26;100837.88;5070938;28;20712;-66
2022/10/28 03:03:03;;;;;;;21.13;12.73;;;;;;;11.82;76.12;100840.22;5071091;28;20746;-65
2022/10/28 03:05:30;;;;;;;18.90;12.97;;;;;;;11.75;76.12;100841.91;5071384;28;20240;-65
2022/10/28 03:07:56;;;;;;;25.53;12.27;;;;;;;11.70;76.64;100843.41;5070819;28;20663;-64
2022/10/28 03:10:23;;;;;;;21.57;13.20;;;;;;;11.60;76.75;100846.25;5071544;28;20806;-65
2022/10/28 03:12:50;;;;;;;18.70;13.63;;;;;;;11.54;76.83;100852.22;5071318;28;20290;-66
2022/10/28 03:15:16;;;;;;;18.13;13.27;;;;;;;11.51;77.04;100849.91;5071064;28;20198;-62
2022/10/28 03:17:43;;;;;;;17.00;12.57;;;;;;;11.48;76.88;100847.59;5065587;28;20268;-63
2022/10/28 03:20:12;;;;;;;24.00;14.17;;;;;;;11.48;76.88;100847.59;5066895;28;20219;-65
2022/10/28 03:22:38;;;;;;;18.40;13.30;;;;;;;11.51;77.09;100846.44;5068853;28;20193;-65
2022/10/28 03:25:06;;;;;;;18.80;12.97;;;;;;;11.44;77.03;100848.94;5060197;28;20207;-66
2022/10/28 03:27:32;;;;;;;17.70;13.00;;;;;;;11.33;77.18;100838.63;5053322;28;20233;-67
2022/10/28 03:29:59;;;;;;;15.73;13.03;;;;;;;11.23;77.22;100855.75;5067515;28;20599;-66
2022/10/28 03:32:26;;;;;;;18.73;12.77;;;;;;;11.17;77.68;100843.94;5074556;28;20259;-65
2022/10/28 03:34:52;;;;;;;16.70;11.93;;;;;;;11.13;77.89;100852.41;5074218;28;20255;-67
2022/10/28 03:37:20;;;;;;;17.77;12.90;;;;;;;11.13;78.02;100853.25;5074743;28;20192;-65
2022/10/28 03:39:47;;;;;;;13.07;11.67;;;;;;;11.09;78.00;100854.59;5074639;28;20278;-66
2022/10/28 03:42:14;;;;;;;19.53;11.80;;;;;;;11.04;78.13;100854.25;5074576;28;20641;-65
2022/10/28 03:44:40;;;;;;;18.57;12.90;;;;;;;11.03;78.58;100857.94;5074573;28;20197;-65
2022/10/28 03:47:07;;;;;;;19.43;13.03;;;;;;;10.98;78.61;100854.91;5074266;28;20270;-65
2022/10/28 03:49:34;;;;;;;18.47;12.47;;;;;;;11.01;78.58;100857.25;5073848;28;20221;-66
2022/10/28 03:52:00;;;;;;;27.73;12.40;;;;;;;10.96;78.93;100859.56;5074385;28;20665;-66
2022/10/28 03:54:28;;;;;;;19.87;12.70;;;;;;;10.98;79.49;100852.25;5074210;28;20547;-67
2022/10/28 03:56:55;;;;;;;81.60;15.53;;;;;;;11.04;79.14;100859.59;5074707;28;20198;-66
2022/10/28 03:59:22;;;;;;;27.93;13.97;;;;;;;11.17;78.44;100854.59;5074527;28;20205;-66
2022/10/28 04:01:49;;;;;;;17.83;12.43;;;;;;;11.23;78.35;100853.91;5074563;28;20228;-66
2022/10/28 04:04:15;;;;;;;24.60;13.20;;;;;;;11.29;78.00;100844.44;5073740;28;20238;-68
2022/10/28 04:06:42;;;;;;;23.67;13.83;;;;;;;11.35;77.74;100852.56;5074117;28;20653;-66
2022/10/28 04:09:09;;;;;;;20.27;12.70;;;;;;;11.35;77.99;100852.56;5074055;28;20557;-67
2022/10/28 04:11:37;;;;;;;28.20;12.87;;;;;;;11.41;78.23;100851.91;5074151;28;20233;-66
2022/10/28 04:14:03;;;;;;;43.73;12.50;;;;;;;11.45;77.52;100847.94;5073966;28;20216;-71
2022/10/28 04:16:30;;;;;;;45.30;13.60;;;;;;;11.44;77.63;100851.59;5073505;28;20192;-66
2022/10/28 04:18:57;;;;;;;18.77;12.27;;;;;;;11.48;77.23;100860.91;5073950;28;20247;-67
2022/10/28 04:21:24;;;;;;;23.57;12.07;;;;;;;11.52;77.40;100864.88;5073704;28;20201;-66
2022/10/28 04:23:50;;;;;;;25.10;12.47;;;;;;;11.50;77.75;100856.22;5074029;28;20190;-66
2022/10/28 04:26:17;;;;;;;20.53;12.93;;;;;;;11.50;77.74;100856.22;5074118;28;20251;-65
2022/10/28 04:28:45;;;;;;;25.27;12.83;;;;;;;11.49;77.85;100853.72;5073697;28;20197;-67
2022/10/28 04:31:12;;;;;;;22.30;11.27;;;;;;;11.43;77.67;100859.75;5073709;28;20308;-64
2022/10/28 04:33:38;;;;;;;17.93;11.17;;;;;;;11.33;77.97;100859.91;5073340;28;20238;-65
2022/10/28 04:36:06;;;;;;;28.43;12.60;;;;;;;11.33;78.09;100859.91;5066488;28;20411;-65
2022/10/28 04:38:32;;;;;;;24.47;12.13;;;;;;;11.32;78.31;100855.59;5066679;28;20195;-65
2022/10/28 04:40:59;;;;;;;20.40;12.30;;;;;;;11.32;78.85;100862.72;5062008;28;20661;-64
2022/10/28 04:43:26;;;;;;;21.27;12.43;;;;;;;11.38;78.55;100854.91;5060960;28;20247;-65
2022/10/28 04:45:54;;;;;;;39.90;12.77;;;;;;;11.47;78.22;100855.75;5067978;28;20190;-65
2022/10/28 04:48:21;;;;;;;27.77;11.90;;;;;;;11.51;78.02;100857.88;5061752;28;20253;-65
2022/10/28 04:50:48;;;;;;;30.40;12.93;;;;;;;11.56;77.86;100855.53;5059512;28;20219;-65
2022/10/28 04:53:15;;;;;;;39.00;13.97;;;;;;;11.58;77.71;100853.56;5069291;28;20198;-68
2022/10/28 04:55:41;;;;;;;34.80;12.37;;;;;;;11.68;77.48;100854.22;5070420;28;20198;-65
2022/10/28 04:58:09;;;;;;;23.70;11.90;;;;;;;11.72;77.25;100844.88;5065451;28;20194;-65
2022/10/28 05:00:36;;;;;;;41.37;12.77;;;;;;;11.76;76.92;100856.06;5063032;28;20236;-65
2022/10/28 05:03:04;;;;;;;24.40;11.90;;;;;;;11.78;77.50;100854.88;5062408;28;20191;-65
2022/10/28 05:05:31;;;;;;;29.07;13.10;;;;;;;11.81;77.29;100851.88;5061343;28;20190;-64
2022/10/28 05:07:58;;;;;;;28.43;12.77;;;;;;;11.85;77.16;100855.00;5063070;28;20199;-66
2022/10/28 05:10:25;;;;;;;36.07;14.03;;;;;;;11.86;76.94;100865.50;5061724;28;20207;-66
2022/10/28 05:12:52;;;;;;;26.47;13.20;;;;;;;11.92;76.44;100861.34;5060486;28;20283;-66
2022/10/28 05:15:18;;;;;;;50.30;14.07;;;;;;;11.99;76.85;100867.59;5063339;28;20610;-65
2022/10/28 05:17:47;;;;;;;39.33;12.97;;;;;;;12.06;76.63;100869.44;5072227;28;20192;-67
2022/10/28 05:20:17;;;;;;;35.47;11.87;;;;;;;12.21;76.46;100878.34;5072629;28;20199;-67
2022/10/28 05:22:47;;;;;;;31.77;14.90;;;;;;;12.43;75.87;100882.94;5072538;28;20243;-67
2022/10/28 05:25:14;;;;;;;53.87;27.47;;;;;;;12.64;75.29;100884.97;5072491;28;20249;-67
2022/10/28 05:27:41;;;;;;;57.27;26.13;;;;;;;12.93;75.03;100890.44;5069039;28;20262;-63
2022/10/28 05:30:10;;;;;;;33.40;20.30;;;;;;;13.28;76.22;100866.69;5058546;28;20220;-65
2022/10/28 05:32:36;;;;;;;43.13;16.10;;;;;;;13.82;70.49;100894.91;5063390;28;20192;-65
2022/10/28 05:35:04;;;;;;;17.37;9.87;;;;;;;13.97;70.16;100898.41;5063482;28;20258;-65
2022/10/28 05:37:32;;;;;;;27.40;9.13;;;;;;;14.11;68.41;100900.25;5061306;28;20189;-69
2022/10/28 05:39:58;;;;;;;41.73;9.20;;;;;;;14.24;70.93;100903.16;5061592;28;20658;-67
2022/10/28 05:42:25;;;;;;;15.23;7.43;;;;;;;14.49;67.48;100919.69;5068019;28;20199;-72
2022/10/28 05:44:52;;;;;;;17.43;7.53;;;;;;;14.78;67.34;100923.16;5072206;28;20251;-73
2022/10/28 05:47:19;;;;;;;17.03;6.87;;;;;;;15.06;65.35;100928.59;5071989;28;20257;-71
2022/10/28 05:49:45;;;;;;;12.40;7.67;;;;;;;15.23;64.61;100924.66;5071509;28;20192;-72
2022/10/28 05:52:12;;;;;;;20.53;7.40;;;;;;;15.49;64.00;100928.44;5068610;28;20192;-68
2022/10/28 05:54:41;;;;;;;17.67;7.97;;;;;;;16.26;70.26;100912.31;5057460;28;20197;-71
2022/10/28 05:57:08;;;;;;;11.37;7.03;;;;;;;17.36;65.69;100928.00;5051570;28;20211;-67
2022/10/28 05:59:35;;;;;;;25.57;8.00;;;;;;;18.15;55.67;100946.63;5051554;28;20657;-67
2022/10/28 06:02:02;;;;;;;16.33;6.30;;;;;;;19.03;60.61;100929.78;5051351;28;20717;-67
2022/10/28 06:04:29;;;;;;;12.90;6.83;;;;;;;19.20;49.49;100947.88;5056341;28;20199;-67
2022/10/28 06:06:56;;;;;;;10.43;6.60;;;;;;;18.83;49.90;100946.00;5071313;28;20933;-70
2022/10/28 06:09:23;;;;;;;11.77;6.33;;;;;;;18.61;50.47;100946.53;5063775;28;20211;-70
2022/10/28 06:11:51;;;;;;;13.63;6.80;;;;;;;18.28;51.70;100943.06;5060719;28;20228;-71
2022/10/28 06:14:18;;;;;;;12.37;6.93;;;;;;;18.17;51.64;100947.22;5059278;28;20698;-70
2022/10/28 06:16:45;;;;;;;92.80;15.43;;;;;;;18.11;53.37;100944.56;5060122;28;20249;-71
2022/10/28 06:19:12;;;;;;;18.60;8.20;;;;;;;18.06;52.86;100941.66;5061176;28;20189;-71
2022/10/28 06:21:39;;;;;;;17.17;7.43;;;;;;;18.26;52.00;100943.28;5059244;28;20195;-71
2022/10/28 06:24:07;;;;;;;27.53;8.87;;;;;;;18.37;51.91;100939.13;5059451;28;20183;-70
2022/10/28 06:26:34;;;;;;;34.40;8.20;;;;;;;18.50;51.13;100939.94;5060037;28;20187;-71
2022/10/28 06:29:02;;;;;;;25.63;7.37;;;;;;;18.72;52.00;100944.00;5058260;28;20184;-70
2022/10/28 06:31:28;;;;;;;31.57;7.70;;;;;;;18.85;50.63;100943.09;5060292;28;20696;-71
2022/10/28 06:33:56;;;;;;;88.60;10.87;;;;;;;18.90;49.38;100954.91;5059102;28;20193;-72
2022/10/28 06:36:23;;;;;;;16.33;6.70;;;;;;;18.75;49.87;100940.06;5060894;28;20192;-73
2022/10/28 06:38:53;;;;;;;26.10;8.60;;;;;;;18.56;50.72;100943.66;5059224;28;20185;-71
2022/10/28 06:41:19;;;;;;;19.67;7.17;;;;;;;18.10;51.66;100916.00;5059277;28;20221;-71
2022/10/28 06:43:46;;;;;;;19.43;7.13;;;;;;;18.26;53.61;100937.09;5060897;28;20218;-71
2022/10/28 06:46:14;;;;;;;17.03;7.07;;;;;;;18.53;51.66;100927.91;5060812;28;20196;-71
2022/10/28 06:48:41;;;;;;;10.47;6.73;;;;;;;19.00;51.20;100935.59;5063784;28;20254;-72
2022/10/28 06:51:07;;;;;;;52.03;8.17;;;;;;;19.29;48.61;100943.94;5070444;28;20289;-72
2022/10/28 06:53:34;;;;;;;158.77;17.10;;;;;;;19.50;48.49;100946.28;5070121;28;20585;-72
2022/10/28 06:56:01;;;;;;;10.63;5.80;;;;;;;19.72;48.39;100947.56;5063138;28;20192;-72
2022/10/28 06:58:27;;;;;;;12.67;6.33;;;;;;;19.69;46.64;100937.19;5050097;28;20999;-72
2022/10/28 07:00:54;;;;;;;9.77;6.00;;;;;;;19.63;46.78;100948.03;5049263;28;20264;-72
2022/10/28 07:03:22;;;;;;;8.77;5.37;;;;;;;19.50;49.13;100932.81;5049599;28;20196;-72
2022/10/28 07:05:50;;;;;;;9.87;5.00;;;;;;;19.92;46.57;100944.69;5050342;28;20278;-73
2022/10/28 07:08:17;;;;;;;11.53;5.23;;;;;;;19.91;47.13;100934.94;5050530;28;20202;-72
2022/10/28 07:10:43;;;;;;;18.47;5.80;;;;;;;20.25;46.25;100943.34;5017046;28;1115272;-71
2022/10/28 07:13:10;;;;;;;18.17;5.90;;;;;;;20.27;46.62;100941.28;5071218;28;20188;-71
2022/10/28 07:15:37;;;;;;;12.40;4.57;;;;;;;20.60;47.32;100927.41;5071029;28;20651;-72
2022/10/28 07:18:04;;;;;;;8.53;4.60;;;;;;;20.83;45.65;100938.34;5071034;28;20200;-71
2022/10/28 07:20:32;;;;;;;16.30;5.47;;;;;;;21.18;44.19;100939.31;5070949;28;20199;-70
2022/10/28 07:22:59;;;;;;;415.00;38.07;;;;;;;21.50;42.44;100942.59;5071461;28;20196;-70
2022/10/28 07:25:27;;;;;;;17.60;5.53;;;;;;;21.58;42.50;100929.56;5071253;28;20192;-71
2022/10/28 07:27:54;;;;;;;39.83;6.80;;;;;;;21.88;42.31;100930.31;5070574;28;20597;-70
2022/10/28 07:30:21;;;;;;;35.33;7.40;;;;;;;22.00;40.86;100933.84;5061273;28;20196;-70
2022/10/28 07:32:47;;;;;;;21.13;5.40;;;;;;;21.89;40.55;100931.97;5071065;28;20253;-71
2022/10/28 07:35:14;;;;;;;10.13;6.00;;;;;;;22.06;43.67;100932.94;5070440;28;20250;-70
2022/10/28 07:37:42;;;;;;;14.33;6.63;;;;;;;22.15;42.19;100931.50;5071144;28;20257;-70
2022/10/28 07:40:09;;;;;;;4.97;4.50;;;;;;;22.15;40.34;100942.34;5071197;28;20601;-70
2022/10/28 07:42:36;;;;;;;10.87;5.00;;;;;;;22.06;40.66;100943.75;5071493;28;20192;-70
2022/10/28 07:45:04;;;;;;;8.97;5.10;;;;;;;21.78;40.95;100940.09;5070966;28;20253;-71
2022/10/28 07:47:31;;;;;;;7.50;4.80;;;;;;;21.76;41.47;100943.00;5070612;28;20188;-70
2022/10/28 07:49:57;;;;;;;131.87;14.80;;;;;;;21.81;41.25;100936.91;5071082;28;20192;-71
2022/10/28 07:52:24;;;;;;;12.87;5.10;;;;;;;21.88;42.57;100927.63;5070319;28;20224;-72
2022/10/28 07:54:52;;;;;;;36.07;5.83;;;;;;;22.13;40.33;100938.22;5070834;28;20721;-70
2022/10/28 07:57:19;;;;;;;13.27;5.27;;;;;;;21.97;40.50;100934.31;5058555;28;20258;-70
2022/10/28 07:59:46;;;;;;;28.90;6.17;;;;;;;21.92;40.63;100939.63;5050867;28;20254;-70
2022/10/28 08:02:16;;;;;;;17.17;5.30;;;;;;;22.26;41.07;100933.38;5051091;28;20277;-70
2022/10/28 08:04:43;;;;;;;24.40;5.27;;;;;;;22.48;39.80;100931.75;5054895;28;20204;-68
2022/10/28 08:07:10;;;;;;;23.10;4.87;;;;;;;22.89;39.42;100933.38;5059528;28;20207;-70
2022/10/28 08:09:36;;;;;;;18.40;4.60;;;;;;;23.29;37.63;100931.47;5049831;28;20220;-68
2022/10/28 08:12:05;;;;;;;11.17;4.23;;;;;;;23.09;37.75;100925.66;5052007;28;20600;-68
2022/10/28 08:14:32;;;;;;;11.77;4.37;;;;;;;23.13;37.34;100924.94;5054310;28;20247;-69
2022/10/28 08:16:59;;;;;;;18.80;4.70;;;;;;;23.29;37.65;100918.75;5054092;28;20189;-69
2022/10/28 08:19:25;;;;;;;5.97;3.90;;;;;;;23.58;37.10;100922.22;5053934;28;20193;-68
2022/10/28 08:21:52;;;;;;;8.60;4.20;;;;;;;23.72;35.75;100918.09;5053290;28;20196;-68
2022/10/28 08:24:19;;;;;;;11.10;4.40;;;;;;;23.80;36.28;100917.69;5057187;28;20255;-69
2022/10/28 08:26:46;;;;;;;15.07;4.90;;;;;;;23.85;36.21;100912.34;5062505;28;20193;-69
2022/10/28 08:29:14;;;;;;;8.23;5.03;;;;;;;23.85;36.12;100918.59;5052637;28;20742;-67
2022/10/28 08:31:41;;;;;;;10.80;5.07;;;;;;;24.06;35.83;100907.00;5053513;28;20223;-68
2022/10/28 08:34:08;;;;;;;14.23;5.53;;;;;;;24.27;35.38;100889.94;5053883;28;20253;-66
2022/10/28 08:36:35;;;;;;;11.57;5.33;;;;;;;24.59;34.84;100909.88;5064365;28;20203;-68
2022/10/28 08:39:02;;;;;;;6.07;4.13;;;;;;;24.83;34.08;100905.88;5053563;28;20211;-69
2022/10/28 08:41:35;;;;;;;14.53;4.57;;;;;;;25.03;34.20;100905.25;5053810;28;20200;-69
2022/10/28 08:44:49;;;;;;;21.37;5.53;;;;;;;25.10;33.56;100899.63;5053528;28;20270;-71
2022/10/28 08:47:28;;;;;;;6.40;3.77;;;;;;;25.04;34.02;100896.84;5069184;28;20253;-70
2022/10/28 08:50:00;;;;;;;11.27;4.30;;;;;;;24.87;34.72;100885.25;5073300;28;20241;-70
2022/10/28 08:52:33;;;;;;;20.10;4.40;;;;;;;25.06;34.28;100898.50;5068162;28;20269;-70
2022/10/28 08:55:04;;;;;;;18.70;4.57;;;;;;;24.99;33.52;100902.25;5073814;28;20248;-68
2022/10/28 08:57:38;;;;;;;9.37;4.23;;;;;;;24.90;33.57;100903.78;5072823;28;20191;-70
2022/10/28 09:00:16;;;;;;;11.63;4.17;;;;;;;24.65;34.85;100892.63;5060570;28;20199;-69
2022/10/28 09:02:51;;;;;;;6.10;3.53;;;;;;;24.54;34.28;100890.81;5053496;28;20192;-71
2022/10/28 09:05:22;;;;;;;33.93;5.10;;;;;;;24.27;34.74;100878.25;5053470;28;20217;-70
2022/10/28 09:07:50;;;;;;;12.83;3.90;;;;;;;24.50;34.64;100886.16;5059517;28;20195;-71
2022/10/28 09:10:20;;;;;;;12.27;4.17;;;;;;;24.77;34.61;100879.72;5073305;28;20196;-71
2022/10/28 09:12:57;;;;;;;4.17;3.73;;;;;;;24.95;34.29;100876.63;5063160;28;20304;-71
2022/10/28 09:15:34;;;;;;;12.27;4.57;;;;;;;25.07;34.71;100872.94;5053475;28;20191;-71
2022/10/28 09:18:12;;;;;;;14.53;4.90;;;;;;;25.22;33.87;100860.31;5052981;28;20180;-71
2022/10/28 09:20:50;;;;;;;5.77;4.73;;;;;;;25.00;34.07;100868.53;5052966;28;20195;-71
2022/10/28 09:23:22;;;;;;;11.27;3.70;;;;;;;24.92;34.63;100854.59;5051956;28;20258;-70
2022/10/28 09:26:01;;;;;;;5.67;3.77;;;;;;;24.89;34.13;100861.34;5053396;28;20203;-70
2022/10/28 09:28:42;;;;;;;5.83;3.90;;;;;;;24.86;34.67;100851.00;5054540;28;20242;-73
2022/10/28 09:31:19;;;;;;;12.47;3.93;;;;;;;25.08;34.01;100859.91;5072578;28;20211;-72
2022/10/28 09:34:00;;;;;;;6.50;3.87;;;;;;;24.95;34.07;100857.59;5072638;28;20187;-70
2022/10/28 09:36:32;;;;;;;5.10;3.60;;;;;;;24.90;34.44;100854.84;5072343;28;20241;-73
2022/10/28 09:39:01;;;;;;;5.00;3.27;;;;;;;25.00;33.97;100846.75;5052157;28;20220;-70
2022/10/28 09:41:32;;;;;;;6.60;3.90;;;;;;;25.02;34.06;100845.72;5052375;28;20253;-72
2022/10/28 09:44:07;;;;;;;19.23;4.87;;;;;;;24.86;34.61;100837.41;5052334;28;20189;-72
2022/10/28 09:46:36;;;;;;;4.33;3.80;;;;;;;24.74;34.26;100838.59;5061374;28;20221;-71
2022/10/28 09:49:08;;;;;;;16.80;4.83;;;;;;;24.71;34.74;100831.00;5072349;28;20203;-70
2022/10/28 09:51:46;;;;;;;17.10;4.43;;;;;;;24.76;34.96;100823.72;5072459;28;20268;-70
2022/10/28 09:54:14;;;;;;;8.03;3.90;;;;;;;24.79;34.81;100825.91;5071078;28;20541;-69
2022/10/28 09:56:41;;;;;;;4.53;4.10;;;;;;;24.50;35.12;100827.19;5065720;28;20220;-70
2022/10/28 09:59:14;;;;;;;4.53;4.13;;;;;;;24.67;34.77;100825.22;5052864;28;20663;-69
2022/10/28 10:01:44;;;;;;;9.00;4.13;;;;;;;24.70;34.84;100813.84;5051518;28;20914;-69
2022/10/28 10:04:19;;;;;;;54.30;7.57;;;;;;;24.56;35.40;100807.16;5062144;28;20199;-68
2022/10/28 10:06:49;;;;;;;5.63;3.80;;;;;;;23.97;36.06;100810.75;5071818;28;20240;-69
2022/10/28 10:09:22;;;;;;;11.00;3.80;;;;;;;23.98;36.50;100801.53;5072722;28;20269;-69
2022/10/28 10:11:52;;;;;;;200.63;16.80;;;;;;;24.02;36.78;100799.97;5072218;28;20776;-67
2022/10/28 10:14:24;;;;;;;5.30;3.80;;;;;;;24.10;36.58;100796.81;5072137;28;20194;-70
2022/10/28 10:16:55;;;;;;;8.53;3.70;;;;;;;24.20;35.82;100793.41;5072244;28;20216;-70
2022/10/28 10:19:22;;;;;;;11.30;4.70;;;;;;;24.00;36.40;100791.25;5072506;28;20186;-71
2022/10/28 10:21:51;;;;;;;7.80;3.77;;;;;;;24.10;37.01;100790.56;5072141;28;20564;-71
2022/10/28 10:24:32;;;;;;;8.33;3.73;;;;;;;24.33;36.48;100791.13;5071722;28;20194;-71
2022/10/28 10:27:01;;;;;;;3.10;2.90;;;;;;;24.64;35.47;100793.16;5072256;28;20641;-71
2022/10/28 10:29:30;;;;;;;5.33;2.80;;;;;;;24.87;34.08;100787.38;5061409;28;20199;-71
2022/10/28 10:32:17;;;;;;;3.37;3.07;;;;;;;25.02;34.47;100783.97;5051647;28;20261;-71
2022/10/28 10:34:50;;;;;;;8.93;3.40;;;;;;;25.14;34.29;100783.81;5052908;28;20191;-71
2022/10/28 10:37:22;;;;;;;3.70;3.40;;;;;;;25.13;34.15;100769.38;5070294;28;20191;-71
2022/10/28 10:40:06;;;;;;;5.30;3.23;;;;;;;25.06;33.73;100773.41;5070989;28;20244;-71
2022/10/28 10:42:33;;;;;;;5.47;3.47;;;;;;;24.80;33.83;100761.47;5071290;28;20244;-71
2022/10/28 10:45:18;;;;;;;3.60;3.30;;;;;;;24.66;33.90;100763.78;5071720;28;20195;-71
2022/10/28 10:47:46;;;;;;;5.03;3.20;;;;;;;24.83;33.91;100764.50;5071543;28;20184;-71
2022/10/28 10:50:23;;;;;;;5.43;3.07;;;;;;;24.88;33.48;100756.38;5071650;28;20248;-71
2022/10/28 10:52:55;;;;;;;9.23;3.67;;;;;;;24.97;33.77;100751.31;5071295;28;20268;-71
2022/10/28 10:55:31;;;;;;;7.23;3.30;;;;;;;25.17;33.74;100743.31;5071605;28;20199;-71
2022/10/28 10:57:58;;;;;;;4.57;2.63;;;;;;;25.37;32.55;100748.91;5053427;28;20192;-72
2022/10/28 11:00:31;;;;;;;5.27;2.80;;;;;;;25.32;31.60;100740.72;5051168;28;20269;-71
2022/10/28 11:03:00;;;;;;;2.60;2.40;;;;;;;24.72;32.19;100746.47;5052169;28;20253;-72
2022/10/28 11:05:28;;;;;;;3.20;2.40;;;;;;;24.69;32.45;100741.53;5064268;28;20282;-70
2022/10/28 11:07:56;;;;;;;6.27;2.80;;;;;;;24.73;31.95;100742.66;5071236;28;20621;-70
2022/10/28 11:10:25;;;;;;;2.80;2.30;;;;;;;24.74;32.26;100741.59;5056733;28;20260;-68
2022/10/28 11:12:54;;;;;;;4.40;2.60;;;;;;;24.70;32.49;100742.34;5069374;28;20640;-69
2022/10/28 11:15:24;;;;;;;2.40;2.13;;;;;;;24.64;31.97;100741.50;5071117;28;20202;-68
2022/10/28 11:17:56;;;;;;;9.10;2.40;;;;;;;24.83;31.41;100742.75;5071618;28;20245;-68
2022/10/28 11:20:28;;;;;;;6.47;2.50;;;;;;;24.98;32.27;100733.09;5070789;28;20200;-71
2022/10/28 11:23:16;;;;;;;2.70;2.50;;;;;;;24.96;31.20;100736.06;5071087;28;20221;-68
2022/10/28 11:25:46;;;;;;;3.97;2.50;;;;;;;25.02;30.51;100737.75;5067700;28;20654;-69
2022/10/28 11:28:43;;;;;;;3.00;1.70;;;;;;;25.14;30.96;100732.13;5071066;28;20237;-69
2022/10/28 11:31:30;;;;;;;5.53;1.90;;;;;;;25.08;29.65;100721.19;5071774;28;20189;-68